sensor_id;sensor_type;location;lat;lon;timestamp;pressure;altitude;pressure_sealevel;temperature
80246;BMP280;69558;39.208;-77.226;2023-09-19T00:02:20;99701.97;;;25.44
80246;BMP280;69558;39.208;-77.226;2023-09-19T00:04:46;99689.44;;;25.39
80246;BMP280;69558;39.208;-77.226;2023-09-19T00:07:14;99699.00;;;25.40
80246;BMP280;69558;39.208;-77.226;2023-09-19T00:09:41;99711.81;;;25.48
80246;BMP280;69558;39.208;-77.226;2023-09-19T00:12:09;99701.41;;;25.42
80246;BMP280;69558;39.208;-77.226;2023-09-19T00:14:35;99720.59;;;25.49
80246;BMP280;69558;39.208;-77.226;2023-09-19T00:17:02;99720.56;;;25.44
80246;BMP280;69558;39.208;-77.226;2023-09-19T00:19:36;99725.38;;;25.47
80246;BMP280;69558;39.208;-77.226;2023-09-19T00:22:03;99727.25;;;25.51
80246;BMP280;69558;39.208;-77.226;2023-09-19T00:24:30;99726.41;;;25.46
80246;BMP280;69558;39.208;-77.226;2023-09-19T00:26:58;99726.94;;;25.48
80246;BMP280;69558;39.208;-77.226;2023-09-19T00:29:25;99722.41;;;25.43
80246;BMP280;69558;39.208;-77.226;2023-09-19T00:31:55;99734.38;;;25.46
80246;BMP280;69558;39.208;-77.226;2023-09-19T00:34:22;99738.66;;;25.47
80246;BMP280;69558;39.208;-77.226;2023-09-19T00:36:50;99726.63;;;25.44
80246;BMP280;69558;39.208;-77.226;2023-09-19T00:39:19;99739.97;;;25.49
80246;BMP280;69558;39.208;-77.226;2023-09-19T00:41:45;99743.44;;;25.50
80246;BMP280;69558;39.208;-77.226;2023-09-19T00:44:11;99746.34;;;25.48
80246;BMP280;69558;39.208;-77.226;2023-09-19T00:46:37;99714.25;;;25.28
80246;BMP280;69558;39.208;-77.226;2023-09-19T00:49:03;99722.78;;;25.30
80246;BMP280;69558;39.208;-77.226;2023-09-19T00:51:30;99752.44;;;25.49
80246;BMP280;69558;39.208;-77.226;2023-09-19T00:53:56;99750.06;;;25.47
80246;BMP280;69558;39.208;-77.226;2023-09-19T00:56:25;99764.44;;;25.51
80246;BMP280;69558;39.208;-77.226;2023-09-19T00:58:52;99765.53;;;25.50
80246;BMP280;69558;39.208;-77.226;2023-09-19T01:01:18;99767.34;;;25.50
80246;BMP280;69558;39.208;-77.226;2023-09-19T01:03:44;99763.53;;;25.41
80246;BMP280;69558;39.208;-77.226;2023-09-19T01:06:10;99788.59;;;25.50
80246;BMP280;69558;39.208;-77.226;2023-09-19T01:08:37;99791.47;;;25.48
80246;BMP280;69558;39.208;-77.226;2023-09-19T01:11:21;99780.53;;;25.45
80246;BMP280;69558;39.208;-77.226;2023-09-19T01:22:42;99801.88;;;25.50
80246;BMP280;69558;39.208;-77.226;2023-09-19T01:25:56;99812.72;;;25.48
80246;BMP280;69558;39.208;-77.226;2023-09-19T01:28:51;99779.09;;;25.32
80246;BMP280;69558;39.208;-77.226;2023-09-19T01:31:21;99791.94;;;25.40
80246;BMP280;69558;39.208;-77.226;2023-09-19T01:34:02;99812.19;;;25.46
80246;BMP280;69558;39.208;-77.226;2023-09-19T01:36:36;99808.97;;;25.44
80246;BMP280;69558;39.208;-77.226;2023-09-19T01:39:12;99815.66;;;25.47
80246;BMP280;69558;39.208;-77.226;2023-09-19T01:44:29;99813.53;;;25.49
80246;BMP280;69558;39.208;-77.226;2023-09-19T01:47:00;99820.16;;;25.46
80246;BMP280;69558;39.208;-77.226;2023-09-19T01:49:43;99814.59;;;25.48
80246;BMP280;69558;39.208;-77.226;2023-09-19T01:52:12;99819.66;;;25.49
80246;BMP280;69558;39.208;-77.226;2023-09-19T01:54:56;99817.56;;;25.51
80246;BMP280;69558;39.208;-77.226;2023-09-19T01:57:34;99814.09;;;25.51
80246;BMP280;69558;39.208;-77.226;2023-09-19T02:00:05;99811.59;;;25.44
80246;BMP280;69558;39.208;-77.226;2023-09-19T02:02:44;99807.31;;;25.38
80246;BMP280;69558;39.208;-77.226;2023-09-19T02:05:11;99828.44;;;25.50
80246;BMP280;69558;39.208;-77.226;2023-09-19T02:07:38;99828.94;;;25.47
80246;BMP280;69558;39.208;-77.226;2023-09-19T02:10:06;99836.09;;;25.46
80246;BMP280;69558;39.208;-77.226;2023-09-19T02:12:33;99837.13;;;25.45
80246;BMP280;69558;39.208;-77.226;2023-09-19T02:15:01;99843.47;;;25.44
80246;BMP280;69558;39.208;-77.226;2023-09-19T02:17:27;99841.09;;;25.43
80246;BMP280;69558;39.208;-77.226;2023-09-19T02:19:54;99837.06;;;25.40
80246;BMP280;69558;39.208;-77.226;2023-09-19T02:22:23;99845.69;;;25.47
80246;BMP280;69558;39.208;-77.226;2023-09-19T02:24:50;99837.72;;;25.47
80246;BMP280;69558;39.208;-77.226;2023-09-19T02:27:16;99851.75;;;25.48
80246;BMP280;69558;39.208;-77.226;2023-09-19T02:29:43;99857.84;;;25.43
80246;BMP280;69558;39.208;-77.226;2023-09-19T02:32:09;99858.16;;;25.47
80246;BMP280;69558;39.208;-77.226;2023-09-19T02:34:36;99845.22;;;25.33
80246;BMP280;69558;39.208;-77.226;2023-09-19T02:37:05;99865.31;;;25.46
80246;BMP280;69558;39.208;-77.226;2023-09-19T02:39:32;99861.28;;;25.44
80246;BMP280;69558;39.208;-77.226;2023-09-19T02:41:58;99860.16;;;25.40
80246;BMP280;69558;39.208;-77.226;2023-09-19T02:44:24;99871.91;;;25.44
80246;BMP280;69558;39.208;-77.226;2023-09-19T02:46:51;99876.94;;;25.45
80246;BMP280;69558;39.208;-77.226;2023-09-19T02:49:17;99874.56;;;25.44
80246;BMP280;69558;39.208;-77.226;2023-09-19T02:51:44;99858.97;;;25.30
80246;BMP280;69558;39.208;-77.226;2023-09-19T02:54:11;99877.78;;;25.46
80246;BMP280;69558;39.208;-77.226;2023-09-19T02:56:37;99885.19;;;25.44
80246;BMP280;69558;39.208;-77.226;2023-09-19T02:59:03;99890.50;;;25.44
80246;BMP280;69558;39.208;-77.226;2023-09-19T03:01:29;99884.72;;;25.47
80246;BMP280;69558;39.208;-77.226;2023-09-19T03:03:55;99883.09;;;25.46
80246;BMP280;69558;39.208;-77.226;2023-09-19T03:06:21;99877.47;;;25.42
80246;BMP280;69558;39.208;-77.226;2023-09-19T03:08:49;99889.22;;;25.46
80246;BMP280;69558;39.208;-77.226;2023-09-19T03:11:17;99905.34;;;25.45
80246;BMP280;69558;39.208;-77.226;2023-09-19T03:13:51;99905.56;;;25.38
80246;BMP280;69558;39.208;-77.226;2023-09-19T03:16:18;99896.38;;;25.46
80246;BMP280;69558;39.208;-77.226;2023-09-19T03:18:48;99865.69;;;25.16
80246;BMP280;69558;39.208;-77.226;2023-09-19T03:21:16;99909.34;;;25.42
80246;BMP280;69558;39.208;-77.226;2023-09-19T03:23:43;99915.44;;;25.43
80246;BMP280;69558;39.208;-77.226;2023-09-19T03:26:13;99915.19;;;25.44
80246;BMP280;69558;39.208;-77.226;2023-09-19T03:28:43;99926.56;;;25.40
80246;BMP280;69558;39.208;-77.226;2023-09-19T03:31:09;99927.91;;;25.42
80246;BMP280;69558;39.208;-77.226;2023-09-19T03:33:36;99921.47;;;25.38
80246;BMP280;69558;39.208;-77.226;2023-09-19T03:36:03;99928.41;;;25.39
80246;BMP280;69558;39.208;-77.226;2023-09-19T03:38:33;99925.25;;;25.42
80246;BMP280;69558;39.208;-77.226;2023-09-19T03:41:02;99927.34;;;25.40
80246;BMP280;69558;39.208;-77.226;2023-09-19T03:43:28;99912.06;;;25.30
80246;BMP280;69558;39.208;-77.226;2023-09-19T03:45:54;99934.53;;;25.40
80246;BMP280;69558;39.208;-77.226;2023-09-19T03:48:20;99930.81;;;25.41
80246;BMP280;69558;39.208;-77.226;2023-09-19T03:50:47;99924.13;;;25.38
80246;BMP280;69558;39.208;-77.226;2023-09-19T03:53:14;99937.19;;;25.40
80246;BMP280;69558;39.208;-77.226;2023-09-19T03:55:39;99929.78;;;25.42
80246;BMP280;69558;39.208;-77.226;2023-09-19T03:58:05;99936.38;;;25.39
80246;BMP280;69558;39.208;-77.226;2023-09-19T04:00:32;99933.72;;;25.39
80246;BMP280;69558;39.208;-77.226;2023-09-19T04:02:58;99945.38;;;25.38
80246;BMP280;69558;39.208;-77.226;2023-09-19T04:05:24;99928.59;;;25.32
80246;BMP280;69558;39.208;-77.226;2023-09-19T04:07:51;99953.34;;;25.38
80246;BMP280;69558;39.208;-77.226;2023-09-19T04:10:17;99936.59;;;25.38
80246;BMP280;69558;39.208;-77.226;2023-09-19T04:12:55;99944.84;;;25.36
80246;BMP280;69558;39.208;-77.226;2023-09-19T04:15:22;99944.56;;;25.38
80246;BMP280;69558;39.208;-77.226;2023-09-19T04:17:50;99948.50;;;25.35
80246;BMP280;69558;39.208;-77.226;2023-09-19T04:20:20;99957.84;;;25.38
80246;BMP280;69558;39.208;-77.226;2023-09-19T04:22:48;99963.63;;;25.34
80246;BMP280;69558;39.208;-77.226;2023-09-19T04:25:14;99969.03;;;25.40
80246;BMP280;69558;39.208;-77.226;2023-09-19T04:27:40;99967.91;;;25.35
80246;BMP280;69558;39.208;-77.226;2023-09-19T04:30:09;99964.44;;;25.35
80246;BMP280;69558;39.208;-77.226;2023-09-19T04:32:38;99956.75;;;25.33
80246;BMP280;69558;39.208;-77.226;2023-09-19T04:35:09;99935.75;;;25.15
80246;BMP280;69558;39.208;-77.226;2023-09-19T04:37:41;99961.97;;;25.28
80246;BMP280;69558;39.208;-77.226;2023-09-19T04:40:08;99981.75;;;25.38
80246;BMP280;69558;39.208;-77.226;2023-09-19T04:42:39;99979.84;;;25.33
80246;BMP280;69558;39.208;-77.226;2023-09-19T04:45:06;99949.34;;;25.19
80246;BMP280;69558;39.208;-77.226;2023-09-19T04:47:32;99972.69;;;25.33
80246;BMP280;69558;39.208;-77.226;2023-09-19T04:49:58;99968.66;;;25.31
80246;BMP280;69558;39.208;-77.226;2023-09-19T04:52:24;99981.19;;;25.35
80246;BMP280;69558;39.208;-77.226;2023-09-19T04:54:50;99986.72;;;25.34
80246;BMP280;69558;39.208;-77.226;2023-09-19T04:57:16;99991.09;;;25.40
80246;BMP280;69558;39.208;-77.226;2023-09-19T04:59:42;99980.66;;;25.33
80246;BMP280;69558;39.208;-77.226;2023-09-19T05:02:08;99993.13;;;25.33
80246;BMP280;69558;39.208;-77.226;2023-09-19T05:04:34;99999.25;;;25.33
80246;BMP280;69558;39.208;-77.226;2023-09-19T05:07:01;100002.13;;;25.32
80246;BMP280;69558;39.208;-77.226;2023-09-19T05:09:29;99977.81;;;25.23
80246;BMP280;69558;39.208;-77.226;2023-09-19T05:11:55;100001.63;;;25.35
80246;BMP280;69558;39.208;-77.226;2023-09-19T05:14:22;99989.38;;;25.34
80246;BMP280;69558;39.208;-77.226;2023-09-19T05:16:50;99994.47;;;25.35
80246;BMP280;69558;39.208;-77.226;2023-09-19T05:19:16;99993.13;;;25.33
80246;BMP280;69558;39.208;-77.226;2023-09-19T05:21:43;99994.97;;;25.32
80246;BMP280;69558;39.208;-77.226;2023-09-19T05:24:09;99993.13;;;25.33
80246;BMP280;69558;39.208;-77.226;2023-09-19T05:26:39;100000.28;;;25.32
80246;BMP280;69558;39.208;-77.226;2023-09-19T05:29:06;99996.81;;;25.32
80246;BMP280;69558;39.208;-77.226;2023-09-19T05:31:34;99996.81;;;25.32
80246;BMP280;69558;39.208;-77.226;2023-09-19T05:34:02;99998.44;;;25.33
80246;BMP280;69558;39.208;-77.226;2023-09-19T05:36:28;99998.16;;;25.34
80246;BMP280;69558;39.208;-77.226;2023-09-19T05:38:55;100004.78;;;25.32
80246;BMP280;69558;39.208;-77.226;2023-09-19T05:41:21;100005.81;;;25.31
80246;BMP280;69558;39.208;-77.226;2023-09-19T05:43:49;100005.00;;;25.30
80246;BMP280;69558;39.208;-77.226;2023-09-19T05:46:18;100005.81;;;25.31
80246;BMP280;69558;39.208;-77.226;2023-09-19T05:48:44;100000.53;;;25.31
80246;BMP280;69558;39.208;-77.226;2023-09-19T05:51:14;99996.81;;;25.32
80246;BMP280;69558;39.208;-77.226;2023-09-19T05:53:40;99999.78;;;25.35
80246;BMP280;69558;39.208;-77.226;2023-09-19T05:56:08;100005.81;;;25.31
80246;BMP280;69558;39.208;-77.226;2023-09-19T05:58:36;100011.13;;;25.31
80246;BMP280;69558;39.208;-77.226;2023-09-19T06:01:02;100005.50;;;25.27
80246;BMP280;69558;39.208;-77.226;2023-09-19T06:03:27;100011.13;;;25.31
80246;BMP280;69558;39.208;-77.226;2023-09-19T06:05:55;100015.88;;;25.29
80246;BMP280;69558;39.208;-77.226;2023-09-19T06:08:23;100018.53;;;25.29
80246;BMP280;69558;39.208;-77.226;2023-09-19T06:10:48;100015.16;;;25.33
80246;BMP280;69558;39.208;-77.226;2023-09-19T06:13:17;100014.59;;;25.31
80246;BMP280;69558;39.208;-77.226;2023-09-19T06:15:46;100006.31;;;25.28
80246;BMP280;69558;39.208;-77.226;2023-09-19T06:18:15;100006.47;;;25.21
80246;BMP280;69558;39.208;-77.226;2023-09-19T06:20:47;100007.44;;;25.15
80246;BMP280;69558;39.208;-77.226;2023-09-19T06:23:13;100003.88;;;25.10
80246;BMP280;69558;39.208;-77.226;2023-09-19T06:25:40;100007.59;;;25.09
80246;BMP280;69558;39.208;-77.226;2023-09-19T06:28:06;99995.50;;;25.01
80246;BMP280;69558;39.208;-77.226;2023-09-19T06:30:33;100006.47;;;25.05
80246;BMP280;69558;39.208;-77.226;2023-09-19T06:33:00;100010.72;;;25.06
80246;BMP280;69558;39.208;-77.226;2023-09-19T06:35:27;100008.56;;;25.03
80246;BMP280;69558;39.208;-77.226;2023-09-19T06:37:55;100013.38;;;25.06
80246;BMP280;69558;39.208;-77.226;2023-09-19T06:40:23;99997.28;;;24.95
80246;BMP280;69558;39.208;-77.226;2023-09-19T06:42:53;100007.94;;;25.12
80246;BMP280;69558;39.208;-77.226;2023-09-19T06:45:19;99999.38;;;25.27
80246;BMP280;69558;39.208;-77.226;2023-09-19T06:47:48;100007.97;;;25.34
80246;BMP280;69558;39.208;-77.226;2023-09-19T06:50:17;100004.06;;;25.37
80246;BMP280;69558;39.208;-77.226;2023-09-19T06:52:46;100000.34;;;25.38
80246;BMP280;69558;39.208;-77.226;2023-09-19T06:55:16;100003.81;;;25.38
80246;BMP280;69558;39.208;-77.226;2023-09-19T06:57:44;100008.88;;;25.40
80246;BMP280;69558;39.208;-77.226;2023-09-19T07:00:11;100009.44;;;25.42
80246;BMP280;69558;39.208;-77.226;2023-09-19T07:02:58;100013.13;;;25.41
80246;BMP280;69558;39.208;-77.226;2023-09-19T07:05:30;100003.56;;;25.40
80246;BMP280;69558;39.208;-77.226;2023-09-19T07:07:58;100004.69;;;25.44
80246;BMP280;69558;39.208;-77.226;2023-09-19T07:10:25;99990.53;;;25.38
80246;BMP280;69558;39.208;-77.226;2023-09-19T07:12:56;100006.28;;;25.45
80246;BMP280;69558;39.208;-77.226;2023-09-19T07:15:22;99996.97;;;25.42
80246;BMP280;69558;39.208;-77.226;2023-09-19T07:17:54;99997.50;;;25.44
80246;BMP280;69558;39.208;-77.226;2023-09-19T07:20:23;99988.19;;;25.42
80246;BMP280;69558;39.208;-77.226;2023-09-19T07:22:52;99999.38;;;25.44
80246;BMP280;69558;39.208;-77.226;2023-09-19T07:25:21;99997.50;;;25.44
80246;BMP280;69558;39.208;-77.226;2023-09-19T07:27:48;100001.47;;;25.42
80246;BMP280;69558;39.208;-77.226;2023-09-19T07:30:15;100000.44;;;25.43
80246;BMP280;69558;39.208;-77.226;2023-09-19T07:32:43;99994.22;;;25.37
80246;BMP280;69558;39.208;-77.226;2023-09-19T07:35:10;100013.72;;;25.43
80246;BMP280;69558;39.208;-77.226;2023-09-19T07:37:38;100015.03;;;25.45
80246;BMP280;69558;39.208;-77.226;2023-09-19T07:40:04;100000.66;;;25.41
80246;BMP280;69558;39.208;-77.226;2023-09-19T07:42:36;100005.25;;;25.46
80246;BMP280;69558;39.208;-77.226;2023-09-19T07:45:05;100008.13;;;25.44
80246;BMP280;69558;39.208;-77.226;2023-09-19T07:47:31;100015.88;;;25.46
80246;BMP280;69558;39.208;-77.226;2023-09-19T07:49:59;99999.88;;;25.41
80246;BMP280;69558;39.208;-77.226;2023-09-19T07:52:28;100003.63;;;25.45
80246;BMP280;69558;39.208;-77.226;2023-09-19T07:54:55;100006.06;;;25.46
80246;BMP280;69558;39.208;-77.226;2023-09-19T07:57:23;99994.56;;;25.41
80246;BMP280;69558;39.208;-77.226;2023-09-19T07:59:49;99995.91;;;25.43
80246;BMP280;69558;39.208;-77.226;2023-09-19T08:02:15;100002.38;;;25.47
80246;BMP280;69558;39.208;-77.226;2023-09-19T08:04:45;100000.97;;;25.45
80246;BMP280;69558;39.208;-77.226;2023-09-19T08:07:11;100006.28;;;25.45
80246;BMP280;69558;39.208;-77.226;2023-09-19T08:09:37;99962.22;;;25.27
80246;BMP280;69558;39.208;-77.226;2023-09-19T08:12:05;99996.97;;;25.42
80246;BMP280;69558;39.208;-77.226;2023-09-19T08:14:33;99998.31;;;25.45
80246;BMP280;69558;39.208;-77.226;2023-09-19T08:17:00;99997.50;;;25.44
80246;BMP280;69558;39.208;-77.226;2023-09-19T08:19:26;99961.34;;;25.21
80246;BMP280;69558;39.208;-77.226;2023-09-19T08:21:58;99978.94;;;25.27
80246;BMP280;69558;39.208;-77.226;2023-09-19T08:24:29;100020.31;;;25.40
80246;BMP280;69558;39.208;-77.226;2023-09-19T08:26:56;100010.97;;;25.38
80246;BMP280;69558;39.208;-77.226;2023-09-19T08:29:24;100017.34;;;25.37
80246;BMP280;69558;39.208;-77.226;2023-09-19T08:31:57;100003.16;;;25.31
80246;BMP280;69558;39.208;-77.226;2023-09-19T08:34:24;100013.88;;;25.36
80246;BMP280;69558;39.208;-77.226;2023-09-19T08:36:51;100014.69;;;25.37
80246;BMP280;69558;39.208;-77.226;2023-09-19T08:39:25;100015.94;;;25.34
80246;BMP280;69558;39.208;-77.226;2023-09-19T08:42:00;100009.28;;;25.31
80246;BMP280;69558;39.208;-77.226;2023-09-19T08:44:28;100020.78;;;25.37
80246;BMP280;69558;39.208;-77.226;2023-09-19T08:47:11;100022.88;;;25.35
80246;BMP280;69558;39.208;-77.226;2023-09-19T08:52:32;100023.44;;;25.37
80246;BMP280;69558;39.208;-77.226;2023-09-19T08:55:02;100037.19;;;25.34
80246;BMP280;69558;39.208;-77.226;2023-09-19T08:57:36;100020.28;;;25.23
80246;BMP280;69558;39.208;-77.226;2023-09-19T09:00:08;100033.75;;;25.33
80246;BMP280;69558;39.208;-77.226;2023-09-19T09:02:38;100034.78;;;25.32
80246;BMP280;69558;39.208;-77.226;2023-09-19T09:05:11;100033.91;;;25.27
80246;BMP280;69558;39.208;-77.226;2023-09-19T09:07:38;100042.16;;;25.30
80246;BMP280;69558;39.208;-77.226;2023-09-19T09:10:07;100007.00;;;25.07
80246;BMP280;69558;39.208;-77.226;2023-09-19T09:12:35;100051.19;;;25.29
80246;BMP280;69558;39.208;-77.226;2023-09-19T09:15:06;100047.97;;;25.27
80246;BMP280;69558;39.208;-77.226;2023-09-19T09:17:34;100026.72;;;25.11
80246;BMP280;69558;39.208;-77.226;2023-09-19T09:20:00;100062.06;;;25.28
80246;BMP280;69558;39.208;-77.226;2023-09-19T09:22:26;100060.44;;;25.27
80246;BMP280;69558;39.208;-77.226;2023-09-19T09:24:58;100069.56;;;25.31
80246;BMP280;69558;39.208;-77.226;2023-09-19T09:27:24;100078.56;;;25.30
80246;BMP280;69558;39.208;-77.226;2023-09-19T09:29:51;100079.03;;;25.27
80246;BMP280;69558;39.208;-77.226;2023-09-19T09:34:53;100087.81;;;25.27
80246;BMP280;69558;39.208;-77.226;2023-09-19T09:37:20;100068.97;;;25.12
80246;BMP280;69558;39.208;-77.226;2023-09-19T09:42:35;100102.69;;;25.28
80246;BMP280;69558;39.208;-77.226;2023-09-19T09:45:23;100102.69;;;25.28
80246;BMP280;69558;39.208;-77.226;2023-09-19T09:48:03;100066.16;;;25.02
80246;BMP280;69558;39.208;-77.226;2023-09-19T09:50:36;100108.81;;;25.29
80246;BMP280;69558;39.208;-77.226;2023-09-19T09:53:21;100109.03;;;25.27
80246;BMP280;69558;39.208;-77.226;2023-09-19T09:56:06;100103.88;;;25.21
80246;BMP280;69558;39.208;-77.226;2023-09-19T09:58:37;100107.19;;;25.28
80246;BMP280;69558;39.208;-77.226;2023-09-19T10:01:06;100109.84;;;25.28
80246;BMP280;69558;39.208;-77.226;2023-09-19T10:03:41;100106.38;;;25.27
80246;BMP280;69558;39.208;-77.226;2023-09-19T10:06:40;100105.88;;;25.30
80246;BMP280;69558;39.208;-77.226;2023-09-19T10:09:11;100074.28;;;25.12
80246;BMP280;69558;39.208;-77.226;2023-09-19T10:11:42;100112.28;;;25.29
80246;BMP280;69558;39.208;-77.226;2023-09-19T10:14:11;100095.59;;;25.17
80246;BMP280;69558;39.208;-77.226;2023-09-19T10:16:41;100124.75;;;25.29
80246;BMP280;69558;39.208;-77.226;2023-09-19T10:19:10;100120.47;;;25.28
80246;BMP280;69558;39.208;-77.226;2023-09-19T10:21:37;100120.47;;;25.28
80246;BMP280;69558;39.208;-77.226;2023-09-19T10:24:05;100119.09;;;25.25
80246;BMP280;69558;39.208;-77.226;2023-09-19T10:26:35;100123.13;;;25.28
80246;BMP280;69558;39.208;-77.226;2023-09-19T10:29:06;100131.34;;;25.26
80246;BMP280;69558;39.208;-77.226;2023-09-19T10:31:34;100136.66;;;25.26
80246;BMP280;69558;39.208;-77.226;2023-09-19T10:34:06;100135.84;;;25.26
80246;BMP280;69558;39.208;-77.226;2023-09-19T10:36:34;100148.06;;;25.27
80246;BMP280;69558;39.208;-77.226;2023-09-19T10:39:03;100105.34;;;25.00
80246;BMP280;69558;39.208;-77.226;2023-09-19T10:41:34;100148.78;;;25.22
80246;BMP280;69558;39.208;-77.226;2023-09-19T10:44:03;100154.66;;;25.24
80246;BMP280;69558;39.208;-77.226;2023-09-19T10:46:36;100153.59;;;25.25
80246;BMP280;69558;39.208;-77.226;2023-09-19T10:49:04;100162.59;;;25.24
80246;BMP280;69558;39.208;-77.226;2023-09-19T10:51:33;100166.88;;;25.25
80246;BMP280;69558;39.208;-77.226;2023-09-19T10:54:13;100158.28;;;25.18
80246;BMP280;69558;39.208;-77.226;2023-09-19T10:56:48;100168.72;;;25.25
80246;BMP280;69558;39.208;-77.226;2023-09-19T10:59:20;100162.88;;;25.23
80246;BMP280;69558;39.208;-77.226;2023-09-19T11:01:51;100175.88;;;25.24
80246;BMP280;69558;39.208;-77.226;2023-09-19T11:04:34;100181.47;;;25.23
80246;BMP280;69558;39.208;-77.226;2023-09-19T11:07:08;100179.59;;;25.23
80246;BMP280;69558;39.208;-77.226;2023-09-19T11:15:03;100196.59;;;25.22
80246;BMP280;69558;39.208;-77.226;2023-09-19T11:17:43;100202.94;;;25.21
80246;BMP280;69558;39.208;-77.226;2023-09-19T11:30:46;100227.63;;;25.22
80246;BMP280;69558;39.208;-77.226;2023-09-19T11:33:28;100212.78;;;25.09
80246;BMP280;69558;39.208;-77.226;2023-09-19T11:36:17;100239.25;;;25.21
80246;BMP280;69558;39.208;-77.226;2023-09-19T11:46:51;100239.56;;;25.08
80246;BMP280;69558;39.208;-77.226;2023-09-19T11:49:19;100257.31;;;25.19
80246;BMP280;69558;39.208;-77.226;2023-09-19T11:51:46;100257.31;;;25.19
80246;BMP280;69558;39.208;-77.226;2023-09-19T11:54:18;100262.03;;;25.17
80246;BMP280;69558;39.208;-77.226;2023-09-19T11:56:54;100264.22;;;25.20
80246;BMP280;69558;39.208;-77.226;2023-09-19T11:59:24;100270.56;;;25.19
80246;BMP280;69558;39.208;-77.226;2023-09-19T12:01:55;100239.81;;;24.94
80246;BMP280;69558;39.208;-77.226;2023-09-19T12:04:38;100269.78;;;25.18
80246;BMP280;69558;39.208;-77.226;2023-09-19T12:07:09;100240.03;;;24.93
80246;BMP280;69558;39.208;-77.226;2023-09-19T12:09:42;100280.16;;;25.20
80246;BMP280;69558;39.208;-77.226;2023-09-19T12:12:25;100277.72;;;25.18
80246;BMP280;69558;39.208;-77.226;2023-09-19T12:14:56;100286.84;;;25.22
80246;BMP280;69558;39.208;-77.226;2023-09-19T12:17:39;100282.00;;;25.19
80246;BMP280;69558;39.208;-77.226;2023-09-19T12:20:08;100242.22;;;24.96
80246;BMP280;69558;39.208;-77.226;2023-09-19T12:22:44;100277.97;;;25.17
80246;BMP280;69558;39.208;-77.226;2023-09-19T12:25:14;100286.97;;;25.16
80246;BMP280;69558;39.208;-77.226;2023-09-19T12:27:43;100290.66;;;25.15
80246;BMP280;69558;39.208;-77.226;2023-09-19T12:30:09;100285.84;;;25.12
80246;BMP280;69558;39.208;-77.226;2023-09-19T12:32:39;100278.88;;;25.11
80246;BMP280;69558;39.208;-77.226;2023-09-19T12:35:08;100277.53;;;25.08
80246;BMP280;69558;39.208;-77.226;2023-09-19T12:37:45;100272.56;;;25.00
80246;BMP280;69558;39.208;-77.226;2023-09-19T12:40:21;100297.28;;;25.12
80246;BMP280;69558;39.208;-77.226;2023-09-19T12:42:54;100293.47;;;25.08
80246;BMP280;69558;39.208;-77.226;2023-09-19T12:45:31;100293.66;;;25.07
80246;BMP280;69558;39.208;-77.226;2023-09-19T12:48:22;100299.56;;;25.09
80246;BMP280;69558;39.208;-77.226;2023-09-19T12:51:08;100295.22;;;25.03
80246;BMP280;69558;39.208;-77.226;2023-09-19T12:53:43;100309.59;;;25.07
80246;BMP280;69558;39.208;-77.226;2023-09-19T12:56:16;100304.28;;;25.07
80246;BMP280;69558;39.208;-77.226;2023-09-19T12:58:57;100301.63;;;25.07
80246;BMP280;69558;39.208;-77.226;2023-09-19T13:01:29;100305.91;;;25.08
80246;BMP280;69558;39.208;-77.226;2023-09-19T13:04:14;100299.44;;;25.04
80246;BMP280;69558;39.208;-77.226;2023-09-19T13:06:48;100305.81;;;25.03
80246;BMP280;69558;39.208;-77.226;2023-09-19T13:09:16;100316.75;;;25.06
80246;BMP280;69558;39.208;-77.226;2023-09-19T13:11:42;100308.81;;;25.06
80246;BMP280;69558;39.208;-77.226;2023-09-19T13:14:19;100299.72;;;25.02
80246;BMP280;69558;39.208;-77.226;2023-09-19T13:17:05;100319.66;;;25.05
80246;BMP280;69558;39.208;-77.226;2023-09-19T13:19:42;100307.53;;;25.09
80246;BMP280;69558;39.208;-77.226;2023-09-19T13:25:09;100318.38;;;25.07
80246;BMP280;69558;39.208;-77.226;2023-09-19T13:27:42;100321.84;;;25.08
80246;BMP280;69558;39.208;-77.226;2023-09-19T13:30:10;100327.97;;;25.08
80246;BMP280;69558;39.208;-77.226;2023-09-19T13:32:36;100331.88;;;25.06
80246;BMP280;69558;39.208;-77.226;2023-09-19T13:35:04;100332.69;;;25.06
80246;BMP280;69558;39.208;-77.226;2023-09-19T13:37:32;100340.06;;;25.04
80246;BMP280;69558;39.208;-77.226;2023-09-19T13:40:00;100332.25;;;24.97
80246;BMP280;69558;39.208;-77.226;2023-09-19T13:42:26;100343.00;;;25.03
80246;BMP280;69558;39.208;-77.226;2023-09-19T13:44:55;100341.09;;;25.03
80246;BMP280;69558;39.208;-77.226;2023-09-19T13:47:22;100337.41;;;25.04
80246;BMP280;69558;39.208;-77.226;2023-09-19T13:49:50;100343.53;;;25.05
80246;BMP280;69558;39.208;-77.226;2023-09-19T13:52:20;100337.69;;;25.03
80246;BMP280;69558;39.208;-77.226;2023-09-19T13:54:47;100337.06;;;25.00
80246;BMP280;69558;39.208;-77.226;2023-09-19T13:57:14;100342.50;;;25.06
80246;BMP280;69558;39.208;-77.226;2023-09-19T13:59:41;100343.75;;;25.03
80246;BMP280;69558;39.208;-77.226;2023-09-19T14:02:07;100327.13;;;24.96
80246;BMP280;69558;39.208;-77.226;2023-09-19T14:04:34;100329.00;;;24.95
80246;BMP280;69558;39.208;-77.226;2023-09-19T14:07:00;100349.66;;;25.05
80246;BMP280;69558;39.208;-77.226;2023-09-19T14:09:26;100346.06;;;24.99
80246;BMP280;69558;39.208;-77.226;2023-09-19T14:11:53;100350.13;;;25.02
80246;BMP280;69558;39.208;-77.226;2023-09-19T14:14:19;100349.88;;;25.04
80246;BMP280;69558;39.208;-77.226;2023-09-19T14:16:47;100336.72;;;24.97
80246;BMP280;69558;39.208;-77.226;2023-09-19T14:19:13;100351.88;;;24.85
80246;BMP280;69558;39.208;-77.226;2023-09-19T14:21:42;100351.72;;;24.80
80246;BMP280;69558;39.208;-77.226;2023-09-19T14:24:08;100338.00;;;24.71
80246;BMP280;69558;39.208;-77.226;2023-09-19T14:26:38;100343.31;;;24.71
80246;BMP280;69558;39.208;-77.226;2023-09-19T14:29:05;100340.75;;;24.64
80246;BMP280;69558;39.208;-77.226;2023-09-19T14:31:34;100339.50;;;24.67
80246;BMP280;69558;39.208;-77.226;2023-09-19T14:34:02;100349.28;;;24.67
80246;BMP280;69558;39.208;-77.226;2023-09-19T14:36:30;100350.59;;;24.64
80246;BMP280;69558;39.208;-77.226;2023-09-19T14:38:56;100343.31;;;24.59
80246;BMP280;69558;39.208;-77.226;2023-09-19T14:41:23;100360.72;;;24.67